Time;durP1;ratioP1;P1;durP2;ratioP2;P2;SDS_P1;SDS_P2;PMS_P1;PMS_P2;Temp;Humidity;BMP_temperature;BMP_pressure;BME280_temperature;BME280_humidity;BME280_pressure;Samples;Min_cycle;Max_cycle;Signal;HPM_P1;HPM_P2
2021/08/03 00:00:12;;;;;;;;;7.25;5.75;;;;;;;;4990572;28;46946;-84
2021/08/03 00:02:58;;;;;;;;;7.25;5.75;;;;;;;;4997124;28;47017;-85
2021/08/03 00:05:44;;;;;;;;;6.00;5.75;;;;;;;;4997390;28;46965;-85
2021/08/03 00:08:39;;;;;;;;;;;;;;;;;;;;;
2021/08/03 00:11:09;;;;;;;;;7.00;6.00;;;;;;;;4996600;28;75775;-85
2021/08/03 00:13:36;;;;;;;;;6.75;6.75;;;;;;;;4997615;28;47029;-85
2021/08/03 00:16:04;;;;;;;;;5.75;4.75;;;;;;;;4997495;28;46823;-85
2021/08/03 00:18:30;;;;;;;;;5.75;5.00;;;;;;;;4997906;28;47111;-85
2021/08/03 00:20:58;;;;;;;;;7.25;6.00;;;;;;;;4980859;28;49155;-85
2021/08/03 00:23:24;;;;;;;;;5.25;5.00;;;;;;;;4979772;28;47006;-85
2021/08/03 00:25:54;;;;;;;;;6.75;5.75;;;;;;;;4984256;28;46919;-85
2021/08/03 00:28:40;;;;;;;;;6.50;5.00;;;;;;;;4979562;28;47350;-85
2021/08/03 00:31:15;;;;;;;;;6.00;6.00;;;;;;;;4980320;28;48885;-85
2021/08/03 00:33:43;;;;;;;;;5.50;5.00;;;;;;;;4979097;28;47118;-85
2021/08/03 00:36:14;;;;;;;;;6.25;5.25;;;;;;;;4979739;28;47020;-85
2021/08/03 00:38:52;;;;;;;;;;;;;;;;;;;;;
2021/08/03 00:41:41;;;;;;;;;7.00;6.00;;;;;;;;4999700;28;77418;-85
2021/08/03 00:44:45;;;;;;;;;4.00;4.00;;;;;;;;5000721;28;47260;-85
2021/08/03 00:47:20;;;;;;;;;7.50;5.25;;;;;;;;4975405;28;47111;-85
2021/08/03 00:50:11;;;;;;;;;11.25;6.75;;;;;;;;4982650;28;47260;-85
2021/08/03 00:52:36;;;;;;;;;4.00;4.00;;;;;;;;4982547;28;48724;-84
2021/08/03 00:55:05;;;;;;;;;6.25;5.00;;;;;;;;4982884;28;46994;-84
2021/08/03 00:57:43;;;;;;;;;;;;;;;;;;;;;
2021/08/03 01:00:11;;;;;;;;;6.75;5.00;;;;;;;;4999249;28;69954;-85
2021/08/03 01:02:37;;;;;;;;;6.00;6.00;;;;;;;;5005115;28;47126;-85
2021/08/03 01:05:15;;;;;;;;;;;;;;;;;;;;;
2021/08/03 01:07:48;;;;;;;;;6.00;5.00;;;;;;;;4999384;28;71848;-84
2021/08/03 01:10:23;;;;;;;;;7.50;5.00;;;;;;;;4982741;28;47046;-84
2021/08/03 01:12:49;;;;;;;;;6.25;5.00;;;;;;;;4999990;28;47995;-85
2021/08/03 01:15:26;;;;;;;;;8.25;6.75;;;;;;;;5000101;28;47111;-85
2021/08/03 01:18:30;;;;;;;;;7.00;7.00;;;;;;;;4988647;28;47047;-84
2021/08/03 01:20:59;;;;;;;;;6.50;5.25;;;;;;;;4939349;28;47165;-85
2021/08/03 01:23:33;;;;;;;;;6.00;5.00;;;;;;;;4923138;28;48604;-84
2021/08/03 01:26:04;;;;;;;;;4.25;3.25;;;;;;;;4971727;28;47009;-84
2021/08/03 01:28:38;;;;;;;;;6.75;4.25;;;;;;;;4999806;28;47011;-84
2021/08/03 01:31:19;;;;;;;;;6.25;6.00;;;;;;;;4982454;28;47254;-85
2021/08/03 01:33:46;;;;;;;;;7.00;5.75;;;;;;;;4999493;28;47736;-85
2021/08/03 01:36:12;;;;;;;;;5.00;5.00;;;;;;;;4999921;28;46823;-84
2021/08/03 01:38:39;;;;;;;;;7.25;5.50;;;;;;;;4999708;28;46808;-84
2021/08/03 01:41:06;;;;;;;;;6.75;6.00;;;;;;;;4982254;28;47228;-85
2021/08/03 01:43:33;;;;;;;;;6.50;5.75;;;;;;;;4981648;28;49413;-85
2021/08/03 01:45:59;;;;;;;;;6.00;5.75;;;;;;;;4999627;28;47018;-85
2021/08/03 01:48:25;;;;;;;;;4.25;4.25;;;;;;;;4999004;28;46815;-85
2021/08/03 01:50:53;;;;;;;;;5.50;5.00;;;;;;;;4999890;28;47001;-85
2021/08/03 01:53:20;;;;;;;;;6.50;6.00;;;;;;;;4999646;28;46906;-85
2021/08/03 01:55:46;;;;;;;;;7.00;7.00;;;;;;;;4982226;28;46871;-85
2021/08/03 01:58:13;;;;;;;;;7.75;6.00;;;;;;;;4999010;28;46875;-85
2021/08/03 02:00:39;;;;;;;;;6.00;6.00;;;;;;;;4999312;28;46775;-85
2021/08/03 02:03:05;;;;;;;;;7.75;5.75;;;;;;;;4981450;28;48593;-85
2021/08/03 02:05:31;;;;;;;;;7.00;7.00;;;;;;;;4999299;28;46941;-84
2021/08/03 02:07:56;;;;;;;;;6.50;6.50;;;;;;;;4999273;28;46777;-85
2021/08/03 02:10:22;;;;;;;;;7.25;3.00;;;;;;;;4981914;28;46887;-85
2021/08/03 02:12:49;;;;;;;;;5.50;5.50;;;;;;;;4999032;28;47664;-85
2021/08/03 02:15:14;;;;;;;;;4.50;4.50;;;;;;;;4999435;28;47263;-85
2021/08/03 02:17:40;;;;;;;;;5.75;5.00;;;;;;;;4999133;28;47061;-85
2021/08/03 02:20:06;;;;;;;;;7.50;6.00;;;;;;;;4999298;28;46912;-85
2021/08/03 02:22:32;;;;;;;;;6.00;5.50;;;;;;;;4998821;28;47878;-85
2021/08/03 02:24:57;;;;;;;;;5.75;5.75;;;;;;;;4999094;28;47135;-85
2021/08/03 02:27:22;;;;;;;;;6.75;6.75;;;;;;;;4998847;28;46997;-85
2021/08/03 02:29:48;;;;;;;;;9.75;7.75;;;;;;;;4999244;28;47012;-85
2021/08/03 02:32:16;;;;;;;;;10.75;6.00;;;;;;;;4998942;28;47654;-85
2021/08/03 02:34:41;;;;;;;;;7.00;5.50;;;;;;;;4998581;28;46887;-85
2021/08/03 02:37:11;;;;;;;;;8.75;8.00;;;;;;;;4998900;28;46878;-85
2021/08/03 02:39:37;;;;;;;;;8.50;7.00;;;;;;;;4998935;28;46894;-85
2021/08/03 02:42:03;;;;;;;;;7.00;7.00;;;;;;;;4998881;28;48230;-85
2021/08/03 02:44:29;;;;;;;;;6.75;6.75;;;;;;;;4998457;28;46977;-85
2021/08/03 02:47:07;;;;;;;;;6.50;6.50;;;;;;;;4998910;28;46866;-84
2021/08/03 02:53:10;;;;;;;;;;;;;;;;;;;;;
2021/08/03 02:59:10;;;;;;;;;6.75;6.00;;;;;;;;4964334;28;47154;-85
2021/08/03 03:01:50;;;;;;;;;;;;;;;;;;;;;
2021/08/03 03:04:52;;;;;;;;;8.00;8.00;;;;;;;;4975193;28;77086;-85
2021/08/03 03:13:56;;;;;;;;;;;;;;;;;;;;;
2021/08/03 03:16:52;;;;;;;;;;;;;;;;;;;;;
2021/08/03 03:19:33;;;;;;;;;8.75;7.50;;;;;;;;4955188;28;75424;-85
2021/08/03 03:22:02;;;;;;;;;7.50;7.00;;;;;;;;4970685;28;47131;-85
2021/08/03 03:24:50;;;;;;;;;7.75;6.25;;;;;;;;4980833;28;47305;-85
2021/08/03 03:27:17;;;;;;;;;9.00;8.50;;;;;;;;4977901;28;48273;-84
2021/08/03 03:29:43;;;;;;;;;8.50;7.25;;;;;;;;4980375;28;47130;-84
2021/08/03 03:32:11;;;;;;;;;6.50;6.00;;;;;;;;4975870;28;47005;-84
2021/08/03 09:11:46;;;;;;;;;;;;;;;;;;;;;
2021/08/03 09:14:37;;;;;;;;;3.75;3.75;;;;;;;;4661081;30;72229;-86
2021/08/03 09:17:25;;;;;;;;;5.25;4.50;;;;;;;;4784140;29;47288;-86
2021/08/03 09:20:11;;;;;;;;;3.75;3.25;;;;;;;;4861338;29;48027;-86
2021/08/03 09:22:36;;;;;;;;;3.75;3.75;;;;;;;;4976153;28;47243;-86
2021/08/03 09:25:30;;;;;;;;;4.75;4.25;;;;;;;;4998860;28;47106;-86
2021/08/03 09:28:03;;;;;;;;;2.50;2.50;;;;;;;;4968167;28;47220;-86
2021/08/03 09:30:32;;;;;;;;;7.00;2.50;;;;;;;;4982152;28;48638;-86
2021/08/03 09:32:58;;;;;;;;;3.75;2.50;;;;;;;;4982397;28;47509;-86
2021/08/03 09:35:24;;;;;;;;;2.50;2.50;;;;;;;;4999680;28;46953;-86
2021/08/03 09:37:50;;;;;;;;;2.75;2.75;;;;;;;;4982446;28;46930;-86
2021/08/03 09:40:19;;;;;;;;;1.75;1.75;;;;;;;;4982236;28;48258;-86
2021/08/03 09:42:45;;;;;;;;;2.00;1.75;;;;;;;;4982366;28;47157;-86
2021/08/03 09:45:10;;;;;;;;;4.00;3.00;;;;;;;;4999028;28;47377;-86
2021/08/03 09:47:36;;;;;;;;;1.00;1.00;;;;;;;;5000322;28;46772;-86
2021/08/03 09:50:06;;;;;;;;;3.50;3.00;;;;;;;;4999715;28;46992;-86
2021/08/03 09:52:34;;;;;;;;;3.50;3.00;;;;;;;;4982133;28;47513;-86
2021/08/03 09:55:16;;;;;;;;;4.00;3.25;;;;;;;;4998643;28;47062;-86
2021/08/03 09:57:42;;;;;;;;;3.75;2.25;;;;;;;;4999393;28;47027;-86
2021/08/03 10:00:35;;;;;;;;;3.00;3.00;;;;;;;;5000936;28;49022;-86
2021/08/03 10:03:01;;;;;;;;;4.50;3.75;;;;;;;;4995567;28;47297;-85
2021/08/03 10:05:26;;;;;;;;;3.75;3.00;;;;;;;;4998534;28;46890;-86
2021/08/03 10:07:53;;;;;;;;;3.75;3.00;;;;;;;;4982055;28;46764;-86
2021/08/03 10:10:19;;;;;;;;;3.00;3.00;;;;;;;;4998727;28;47835;-86
2021/08/03 10:12:44;;;;;;;;;4.00;2.25;;;;;;;;5015942;28;46827;-86
2021/08/03 10:15:10;;;;;;;;;2.00;2.00;;;;;;;;5018159;28;46850;-86
2021/08/03 10:17:36;;;;;;;;;3.00;2.50;;;;;;;;5019538;28;46859;-86
2021/08/03 10:20:01;;;;;;;;;2.75;2.75;;;;;;;;5019152;28;47107;-85
2021/08/03 10:22:31;;;;;;;;;3.00;3.00;;;;;;;;5007202;28;47050;-86
2021/08/03 10:25:04;;;;;;;;;4.25;3.00;;;;;;;;5019274;28;46940;-85
2021/08/03 10:27:48;;;;;;;;;2.00;2.00;;;;;;;;5018012;28;47067;-85
2021/08/03 10:30:28;;;;;;;;;3.00;3.00;;;;;;;;5019063;28;48042;-85
2021/08/03 10:32:57;;;;;;;;;3.00;3.00;;;;;;;;5017790;28;47037;-85
2021/08/03 10:35:38;;;;;;;;;4.25;2.75;;;;;;;;5017801;28;46831;-86
2021/08/03 10:38:03;;;;;;;;;4.00;2.75;;;;;;;;5019366;28;46799;-85
2021/08/03 10:40:44;;;;;;;;;5.00;4.00;;;;;;;;5019151;28;46913;-85
2021/08/03 10:43:25;;;;;;;;;4.50;3.75;;;;;;;;5018750;28;47005;-85
2021/08/03 10:46:06;;;;;;;;;4.00;2.75;;;;;;;;5019053;28;46871;-85
2021/08/03 10:48:37;;;;;;;;;4.00;3.75;;;;;;;;5006417;28;46863;-85
2021/08/03 10:51:15;;;;;;;;;5.25;4.00;;;;;;;;5017446;28;49557;-85
2021/08/03 10:53:52;;;;;;;;;2.75;2.75;;;;;;;;5018894;28;47039;-85
2021/08/03 10:56:19;;;;;;;;;4.00;2.25;;;;;;;;5017039;28;46831;-85
2021/08/03 10:58:44;;;;;;;;;3.00;3.00;;;;;;;;5018815;28;46825;-85
2021/08/03 11:01:09;;;;;;;;;4.50;3.75;;;;;;;;5018273;28;46915;-85
2021/08/03 11:03:34;;;;;;;;;5.50;4.00;;;;;;;;5018491;28;46944;-85
2021/08/03 11:06:06;;;;;;;;;5.25;5.25;;;;;;;;5017245;28;47124;-85
2021/08/03 11:08:32;;;;;;;;;5.25;4.75;;;;;;;;5017691;28;47335;-85
2021/08/03 11:11:05;;;;;;;;;5.00;4.00;;;;;;;;5018483;28;47110;-85
2021/08/03 11:13:41;;;;;;;;;6.00;3.50;;;;;;;;5017053;28;47703;-85
2021/08/03 11:16:12;;;;;;;;;5.00;3.75;;;;;;;;5018701;28;46915;-85
2021/08/03 11:18:41;;;;;;;;;4.25;4.00;;;;;;;;5018462;28;47081;-85
2021/08/03 11:21:07;;;;;;;;;3.00;3.00;;;;;;;;4993263;28;49065;-84
2021/08/03 11:23:51;;;;;;;;;2.75;2.75;;;;;;;;5012517;28;46817;-84
2021/08/03 11:26:20;;;;;;;;;5.25;4.00;;;;;;;;5018521;28;47143;-85
2021/08/03 11:29:06;;;;;;;;;3.75;3.00;;;;;;;;5018579;28;46846;-85
2021/08/03 11:31:39;;;;;;;;;4.00;4.00;;;;;;;;5018370;28;46980;-85
2021/08/03 11:34:04;;;;;;;;;3.00;3.00;;;;;;;;5014942;28;46878;-84
2021/08/03 11:36:30;;;;;;;;;5.00;2.75;;;;;;;;5018490;28;46804;-84
2021/08/03 11:38:55;;;;;;;;;3.75;3.75;;;;;;;;5018681;28;46818;-84
2021/08/03 11:41:21;;;;;;;;;4.00;3.00;;;;;;;;5018137;28;48087;-84
2021/08/03 11:43:47;;;;;;;;;4.00;3.25;;;;;;;;5018299;28;47145;-84
2021/08/03 11:46:12;;;;;;;;;4.50;3.50;;;;;;;;5018330;28;46946;-84
2021/08/03 11:48:37;;;;;;;;;5.00;4.00;;;;;;;;5018157;28;46950;-84
2021/08/03 11:51:13;;;;;;;;;3.00;3.00;;;;;;;;5018203;28;47089;-84
2021/08/03 11:53:38;;;;;;;;;2.00;2.00;;;;;;;;5018298;28;46995;-84
2021/08/03 11:56:03;;;;;;;;;4.00;3.50;;;;;;;;5017795;28;47139;-84
2021/08/03 11:58:30;;;;;;;;;4.00;3.00;;;;;;;;5018168;28;47179;-84
2021/08/03 12:00:56;;;;;;;;;8.75;3.50;;;;;;;;5017859;28;47295;-84
2021/08/03 12:03:28;;;;;;;;;2.00;2.00;;;;;;;;5017957;28;46763;-84
2021/08/03 12:05:54;;;;;;;;;3.50;2.00;;;;;;;;5018164;28;46925;-84
2021/08/03 12:08:19;;;;;;;;;4.25;3.00;;;;;;;;5018390;28;46936;-84
2021/08/03 12:10:49;;;;;;;;;5.00;3.00;;;;;;;;5017692;28;47318;-84
2021/08/03 12:13:28;;;;;;;;;4.00;4.00;;;;;;;;5000087;28;47179;-84
2021/08/03 12:15:54;;;;;;;;;4.00;4.00;;;;;;;;5017891;28;47015;-83
2021/08/03 12:18:20;;;;;;;;;4.00;4.00;;;;;;;;5017790;28;46976;-84
2021/08/03 12:20:48;;;;;;;;;2.50;2.00;;;;;;;;5014221;28;48001;-84
2021/08/03 12:23:15;;;;;;;;;5.50;3.25;;;;;;;;5010538;28;47018;-84
2021/08/03 12:25:46;;;;;;;;;5.25;5.00;;;;;;;;5017693;28;46830;-84
2021/08/03 13:04:11;;;;;;;;;4.25;4.00;;;;;;;;4746070;29;47389;-84
2021/08/03 13:25:56;;;;;;;;;6.50;3.75;;;;;;;;4785121;29;47376;-86
2021/08/03 13:28:48;;;;;;;;;4.75;3.75;;;;;;;;4845066;29;47006;-85
2021/08/03 13:32:00;;;;;;;;;5.50;4.75;;;;;;;;4992355;28;46884;-85
2021/08/03 13:34:45;;;;;;;;;6.00;5.50;;;;;;;;5013422;28;47238;-85
2021/08/03 13:37:15;;;;;;;;;4.50;4.50;;;;;;;;4990428;28;46922;-85
2021/08/03 13:39:43;;;;;;;;;7.00;5.25;;;;;;;;5002216;28;46966;-85
2021/08/03 13:42:08;;;;;;;;;7.00;5.00;;;;;;;;5020385;28;46977;-85
2021/08/03 13:44:36;;;;;;;;;5.00;5.00;;;;;;;;5018788;28;47094;-85
2021/08/03 13:47:01;;;;;;;;;5.25;3.50;;;;;;;;5020224;28;47240;-85
2021/08/03 13:49:26;;;;;;;;;5.50;3.75;;;;;;;;5019685;28;46920;-85
2021/08/03 13:51:52;;;;;;;;;4.75;4.75;;;;;;;;5020167;28;46862;-85
2021/08/03 13:54:17;;;;;;;;;3.50;3.50;;;;;;;;5019903;28;47751;-85
2021/08/03 13:56:42;;;;;;;;;6.25;4.75;;;;;;;;5001637;28;46816;-85
2021/08/03 13:59:08;;;;;;;;;4.00;4.00;;;;;;;;5019580;28;46806;-85
2021/08/03 14:01:33;;;;;;;;;4.00;4.00;;;;;;;;5020072;28;46763;-85
2021/08/03 14:03:58;;;;;;;;;5.25;3.50;;;;;;;;5019432;28;46853;-85
2021/08/03 14:06:25;;;;;;;;;6.00;5.00;;;;;;;;5019776;28;46799;-85
2021/08/03 14:08:51;;;;;;;;;4.25;4.00;;;;;;;;5020044;28;46772;-85
2021/08/03 14:11:16;;;;;;;;;3.00;3.00;;;;;;;;5018420;28;46912;-84
2021/08/03 14:13:42;;;;;;;;;5.50;5.00;;;;;;;;5019473;28;47221;-85
2021/08/03 14:16:07;;;;;;;;;5.75;4.00;;;;;;;;5019525;28;47165;-85
2021/08/03 14:18:33;;;;;;;;;4.00;4.00;;;;;;;;5019398;28;46979;-84
2021/08/03 14:20:59;;;;;;;;;4.75;4.00;;;;;;;;5006736;28;47131;-84
2021/08/03 14:23:24;;;;;;;;;3.00;3.00;;;;;;;;5019540;28;47983;-84
2021/08/03 14:25:50;;;;;;;;;5.00;4.00;;;;;;;;5019334;28;47026;-84
2021/08/03 14:28:15;;;;;;;;;4.75;4.00;;;;;;;;5019506;28;46931;-84
2021/08/03 14:30:40;;;;;;;;;4.00;4.00;;;;;;;;5019611;28;46915;-85
2021/08/03 14:33:06;;;;;;;;;5.00;3.25;;;;;;;;5017699;28;48141;-83
2021/08/03 14:35:32;;;;;;;;;4.25;4.00;;;;;;;;5019510;28;46990;-85
2021/08/03 14:37:58;;;;;;;;;4.00;4.00;;;;;;;;5019360;28;46957;-85
2021/08/03 14:40:23;;;;;;;;;4.00;4.00;;;;;;;;5019469;28;47266;-85
2021/08/03 14:42:49;;;;;;;;;3.00;3.00;;;;;;;;5019033;28;48051;-85
2021/08/03 14:45:14;;;;;;;;;5.00;3.75;;;;;;;;5019228;28;46805;-85
2021/08/03 14:47:39;;;;;;;;;5.00;3.75;;;;;;;;5019154;28;47119;-84
2021/08/03 14:50:05;;;;;;;;;3.00;3.00;;;;;;;;5019066;28;47459;-85
2021/08/03 14:52:31;;;;;;;;;3.50;3.00;;;;;;;;5019088;28;48889;-84
2021/08/03 14:54:57;;;;;;;;;4.00;3.25;;;;;;;;5019014;28;46866;-84
2021/08/03 14:57:22;;;;;;;;;4.00;4.00;;;;;;;;5018269;28;46963;-85
2021/08/03 14:59:48;;;;;;;;;2.25;2.25;;;;;;;;5018637;28;47099;-85
2021/08/03 15:02:13;;;;;;;;;3.00;3.00;;;;;;;;5018876;28;47043;-84
2021/08/03 15:04:38;;;;;;;;;4.00;4.00;;;;;;;;5017128;28;46878;-83
2021/08/03 15:07:04;;;;;;;;;3.00;2.25;;;;;;;;5018943;28;47445;-84
2021/08/03 15:09:29;;;;;;;;;3.00;2.75;;;;;;;;5019003;28;46988;-84
2021/08/03 15:11:55;;;;;;;;;2.25;2.25;;;;;;;;5017233;28;48168;-84
2021/08/03 15:14:20;;;;;;;;;5.75;4.00;;;;;;;;5018474;28;46926;-84
2021/08/03 15:16:45;;;;;;;;;3.00;3.00;;;;;;;;5018841;28;47019;-84
2021/08/03 15:19:10;;;;;;;;;3.00;3.00;;;;;;;;5017127;28;47012;-84
2021/08/03 15:21:36;;;;;;;;;2.00;2.00;;;;;;;;5008308;28;48395;-83
2021/08/03 15:24:01;;;;;;;;;2.00;2.00;;;;;;;;5017249;28;47035;-83
2021/08/03 15:26:26;;;;;;;;;2.00;2.00;;;;;;;;5017218;28;46941;-84
2021/08/03 15:28:52;;;;;;;;;4.00;3.50;;;;;;;;5018634;28;46791;-82
2021/08/03 15:31:17;;;;;;;;;3.00;3.00;;;;;;;;5018500;28;47914;-83
2021/08/03 15:33:42;;;;;;;;;4.00;4.00;;;;;;;;4997414;28;46893;-83
2021/08/03 15:36:08;;;;;;;;;3.00;3.00;;;;;;;;5018510;28;46903;-83
2021/08/03 15:38:33;;;;;;;;;4.25;4.25;;;;;;;;5018404;28;47132;-83
2021/08/03 15:40:58;;;;;;;;;3.50;3.00;;;;;;;;5018296;28;46929;-83
2021/08/03 15:43:24;;;;;;;;;4.50;3.00;;;;;;;;5016769;28;46958;-83
2021/08/03 15:45:49;;;;;;;;;4.00;4.00;;;;;;;;5018351;28;46766;-83
2021/08/03 15:48:15;;;;;;;;;6.00;3.50;;;;;;;;5018007;28;46812;-83
2021/08/03 15:50:40;;;;;;;;;3.00;2.00;;;;;;;;5018098;28;46925;-83
2021/08/03 15:53:05;;;;;;;;;4.00;4.00;;;;;;;;5018143;28;46861;-82
2021/08/03 15:55:31;;;;;;;;;4.50;2.25;;;;;;;;5018264;28;46756;-82
2021/08/03 15:57:56;;;;;;;;;4.00;3.00;;;;;;;;5017653;28;46760;-83
2021/08/03 16:00:21;;;;;;;;;6.75;4.00;;;;;;;;5019248;28;48823;-83
2021/08/03 16:02:47;;;;;;;;;4.25;3.00;;;;;;;;5017733;28;47075;-83
2021/08/03 16:05:12;;;;;;;;;2.50;2.50;;;;;;;;5000345;28;46971;-83
2021/08/03 16:07:37;;;;;;;;;5.00;3.00;;;;;;;;5018828;28;46995;-83
2021/08/03 16:10:05;;;;;;;;;4.75;4.75;;;;;;;;5021630;28;46995;-83
2021/08/03 16:12:30;;;;;;;;;4.25;4.00;;;;;;;;5021129;28;46834;-83
2021/08/03 16:14:56;;;;;;;;;3.50;2.50;;;;;;;;5021716;28;46965;-83
2021/08/03 16:17:25;;;;;;;;;3.00;3.00;;;;;;;;5021612;28;46976;-83
2021/08/03 16:19:50;;;;;;;;;3.25;3.00;;;;;;;;5021087;28;47851;-83
2021/08/03 16:22:17;;;;;;;;;5.00;5.00;;;;;;;;4991403;28;46985;-83
2021/08/03 16:24:44;;;;;;;;;5.00;3.50;;;;;;;;5021616;28;47142;-83
2021/08/03 16:27:11;;;;;;;;;6.50;5.25;;;;;;;;5021210;28;47137;-83
2021/08/03 16:29:36;;;;;;;;;3.00;3.00;;;;;;;;5021207;28;47031;-83
2021/08/03 16:32:05;;;;;;;;;4.00;3.00;;;;;;;;5021044;28;47291;-82
2021/08/03 16:34:32;;;;;;;;;4.00;4.00;;;;;;;;5018083;28;46859;-82
2021/08/03 16:37:02;;;;;;;;;3.75;3.25;;;;;;;;5003445;28;47227;-82
2021/08/03 16:39:32;;;;;;;;;6.00;4.25;;;;;;;;5020997;28;47758;-82
2021/08/03 16:41:58;;;;;;;;;4.00;4.00;;;;;;;;5008193;28;47075;-82
2021/08/03 16:44:23;;;;;;;;;3.00;3.00;;;;;;;;5021057;28;47007;-84
2021/08/03 16:46:50;;;;;;;;;5.00;3.75;;;;;;;;5021385;28;47304;-83
2021/08/03 16:49:17;;;;;;;;;3.75;3.75;;;;;;;;5020652;28;47662;-83
2021/08/03 16:51:42;;;;;;;;;4.00;3.00;;;;;;;;5021035;28;46826;-83
2021/08/03 16:54:08;;;;;;;;;4.00;3.25;;;;;;;;5020964;28;46846;-83
2021/08/03 16:56:34;;;;;;;;;2.75;2.75;;;;;;;;5020889;28;47193;-83
2021/08/03 16:58:59;;;;;;;;;4.00;4.00;;;;;;;;5020321;28;47482;-83
2021/08/03 17:01:27;;;;;;;;;3.75;3.00;;;;;;;;5020620;28;47036;-83
2021/08/03 17:04:16;;;;;;;;;3.75;2.75;;;;;;;;5019370;28;47144;-82
2021/08/03 17:07:00;;;;;;;;;3.50;3.50;;;;;;;;4995603;28;46942;-82
2021/08/03 17:09:52;;;;;;;;;4.00;3.50;;;;;;;;5020567;28;47002;-83
2021/08/03 17:12:37;;;;;;;;;3.75;3.75;;;;;;;;5015821;28;47415;-82
2021/08/03 17:15:02;;;;;;;;;3.00;2.75;;;;;;;;5019296;28;46862;-83
2021/08/03 17:17:38;;;;;;;;;3.00;3.00;;;;;;;;5020775;28;46965;-82
2021/08/03 17:20:07;;;;;;;;;4.00;3.00;;;;;;;;5020334;28;47000;-82
2021/08/03 17:22:34;;;;;;;;;4.00;3.75;;;;;;;;5020246;28;47087;-82
2021/08/03 17:25:05;;;;;;;;;4.00;3.50;;;;;;;;5020641;28;46836;-82
2021/08/03 17:27:30;;;;;;;;;3.75;3.00;;;;;;;;5019310;28;47039;-83
2021/08/03 17:29:57;;;;;;;;;4.75;4.50;;;;;;;;5020372;28;47793;-82
2021/08/03 17:32:24;;;;;;;;;4.75;4.00;;;;;;;;5020324;28;47019;-83
2021/08/03 17:34:50;;;;;;;;;6.75;4.00;;;;;;;;5019960;28;47092;-83
2021/08/03 17:37:16;;;;;;;;;5.00;3.00;;;;;;;;5020571;28;46778;-82
2021/08/03 17:39:42;;;;;;;;;4.25;3.00;;;;;;;;5020060;28;46966;-82
2021/08/03 17:42:08;;;;;;;;;4.00;3.00;;;;;;;;5020133;28;47008;-83
2021/08/03 17:44:37;;;;;;;;;5.50;3.50;;;;;;;;5002148;28;47034;-83
2021/08/03 17:47:04;;;;;;;;;3.50;3.00;;;;;;;;5020407;28;47141;-83
2021/08/03 17:49:29;;;;;;;;;4.00;3.25;;;;;;;;5019658;28;46913;-82
2021/08/03 17:51:55;;;;;;;;;5.00;3.75;;;;;;;;5019999;28;46904;-82
2021/08/03 17:54:21;;;;;;;;;4.50;3.00;;;;;;;;5020086;28;46885;-82
2021/08/03 17:56:47;;;;;;;;;4.75;4.00;;;;;;;;5019799;28;46754;-82
2021/08/03 17:59:14;;;;;;;;;4.75;4.75;;;;;;;;5019366;28;48027;-82
2021/08/03 18:01:42;;;;;;;;;4.25;4.25;;;;;;;;5019819;28;47176;-82
2021/08/03 18:04:11;;;;;;;;;5.25;3.75;;;;;;;;5019649;28;46999;-82
2021/08/03 18:06:36;;;;;;;;;4.00;4.00;;;;;;;;5019945;28;47044;-82
2021/08/03 18:09:02;;;;;;;;;5.00;3.50;;;;;;;;5019577;28;47190;-82
2021/08/03 18:11:28;;;;;;;;;4.00;4.00;;;;;;;;5019597;28;47174;-82
2021/08/03 18:13:54;;;;;;;;;4.00;4.00;;;;;;;;5019560;28;46897;-82
2021/08/03 18:16:20;;;;;;;;;3.75;3.75;;;;;;;;5019949;28;46897;-82
2021/08/03 18:18:51;;;;;;;;;4.75;3.75;;;;;;;;5019155;28;47104;-82
2021/08/03 18:21:17;;;;;;;;;6.00;4.00;;;;;;;;5011911;28;47156;-82
2021/08/03 18:23:42;;;;;;;;;4.00;4.00;;;;;;;;5013749;28;47180;-82
2021/08/03 18:26:22;;;;;;;;;3.75;3.75;;;;;;;;5019609;28;47094;-83
2021/08/03 18:29:08;;;;;;;;;4.00;4.00;;;;;;;;5019300;28;48052;-82
2021/08/03 18:31:36;;;;;;;;;4.00;4.00;;;;;;;;5017904;28;46953;-82
2021/08/03 18:34:01;;;;;;;;;5.00;4.00;;;;;;;;5016164;28;46850;-82
2021/08/03 18:36:29;;;;;;;;;5.75;4.00;;;;;;;;5019470;28;47094;-82
2021/08/03 18:38:56;;;;;;;;;6.00;5.00;;;;;;;;5018946;28;47168;-82
2021/08/03 18:41:24;;;;;;;;;5.25;4.75;;;;;;;;5019110;28;47076;-82
2021/08/03 18:43:51;;;;;;;;;5.00;4.00;;;;;;;;5017955;28;46818;-82
2021/08/03 18:46:23;;;;;;;;;3.50;3.25;;;;;;;;5019265;28;47206;-82
2021/08/03 18:48:49;;;;;;;;;2.25;2.25;;;;;;;;5017454;28;48264;-82
2021/08/03 18:51:14;;;;;;;;;2.50;2.50;;;;;;;;5019043;28;46873;-82
2021/08/03 18:53:41;;;;;;;;;5.00;4.75;;;;;;;;5019271;28;46865;-82
2021/08/03 18:56:07;;;;;;;;;5.75;4.75;;;;;;;;5019096;28;47204;-82
2021/08/03 18:58:33;;;;;;;;;5.75;4.25;;;;;;;;5017323;28;48333;-82
2021/08/03 19:00:58;;;;;;;;;5.75;5.50;;;;;;;;5018874;28;46879;-82
2021/08/03 19:03:28;;;;;;;;;4.00;3.25;;;;;;;;5018829;28;46979;-82
2021/08/03 19:05:54;;;;;;;;;4.75;4.75;;;;;;;;5019027;28;47101;-82
2021/08/03 19:08:23;;;;;;;;;6.00;4.00;;;;;;;;5018916;28;47723;-82
2021/08/03 19:10:48;;;;;;;;;4.50;4.50;;;;;;;;5018464;28;47102;-81
2021/08/03 19:13:14;;;;;;;;;5.75;5.00;;;;;;;;5017443;28;47117;-82
2021/08/03 19:16:09;;;;;;;;;5.50;5.50;;;;;;;;5018967;28;46961;-82
2021/08/03 19:18:37;;;;;;;;;7.25;5.50;;;;;;;;5016196;28;47563;-82
2021/08/03 19:21:04;;;;;;;;;4.50;4.00;;;;;;;;5018496;28;46736;-82
2021/08/03 19:23:33;;;;;;;;;7.75;6.00;;;;;;;;5000940;28;46861;-82
2021/08/03 19:25:59;;;;;;;;;7.50;5.25;;;;;;;;5018832;28;47000;-83
2021/08/03 19:28:24;;;;;;;;;7.50;5.25;;;;;;;;5018441;28;48113;-83
2021/08/03 19:30:50;;;;;;;;;5.00;5.00;;;;;;;;5018443;28;46988;-83
2021/08/03 19:33:15;;;;;;;;;5.50;5.50;;;;;;;;5018182;28;46969;-83
2021/08/03 19:35:40;;;;;;;;;5.75;5.00;;;;;;;;5018554;28;46927;-83
2021/08/03 19:38:06;;;;;;;;;6.50;6.00;;;;;;;;5018409;28;47731;-83
2021/08/03 19:40:32;;;;;;;;;6.25;5.00;;;;;;;;5018266;28;46821;-83
2021/08/03 19:42:57;;;;;;;;;5.50;5.50;;;;;;;;5017384;28;46734;-83
2021/08/03 19:45:23;;;;;;;;;7.75;7.25;;;;;;;;5018447;28;46804;-83
2021/08/03 19:48:08;;;;;;;;;4.50;4.50;;;;;;;;5016603;28;48392;-83
2021/08/03 19:50:34;;;;;;;;;7.75;5.00;;;;;;;;5018356;28;47165;-83
2021/08/03 19:53:00;;;;;;;;;5.75;5.50;;;;;;;;5018228;28;46901;-83
2021/08/03 19:55:27;;;;;;;;;6.00;4.50;;;;;;;;5018526;28;46943;-83
2021/08/03 19:57:54;;;;;;;;;9.25;6.25;;;;;;;;5017712;28;47052;-83
2021/08/03 20:00:23;;;;;;;;;5.50;4.00;;;;;;;;5018090;28;46984;-83
2021/08/03 20:02:50;;;;;;;;;6.50;5.25;;;;;;;;5017827;28;46944;-83
2021/08/03 20:05:16;;;;;;;;;4.50;4.50;;;;;;;;5018676;28;46728;-83
2021/08/03 20:07:42;;;;;;;;;8.25;6.00;;;;;;;;5017871;28;46938;-83
2021/08/03 20:10:09;;;;;;;;;7.50;5.25;;;;;;;;5016623;28;47492;-83
2021/08/03 20:12:35;;;;;;;;;7.50;5.25;;;;;;;;5034414;28;46926;-83
2021/08/03 20:15:00;;;;;;;;;8.00;6.00;;;;;;;;5038258;28;46955;-83
2021/08/03 20:17:26;;;;;;;;;7.00;5.00;;;;;;;;5037544;28;48141;-83
2021/08/03 20:19:52;;;;;;;;;5.00;4.00;;;;;;;;5037629;28;47190;-83
2021/08/03 20:22:18;;;;;;;;;7.25;6.00;;;;;;;;5037856;28;46786;-83
2021/08/03 20:24:43;;;;;;;;;6.75;6.00;;;;;;;;5038053;28;47231;-83
2021/08/03 20:27:10;;;;;;;;;7.00;6.50;;;;;;;;5037555;28;46956;-83
2021/08/03 20:29:41;;;;;;;;;9.25;6.50;;;;;;;;5037617;28;46798;-82
2021/08/03 20:32:06;;;;;;;;;6.75;6.75;;;;;;;;5037659;28;46955;-82
2021/08/03 20:34:34;;;;;;;;;6.50;6.00;;;;;;;;5033954;28;47049;-83
2021/08/03 20:37:00;;;;;;;;;5.25;5.25;;;;;;;;5037662;28;46980;-82
2021/08/03 20:42:14;;;;;;;;;6.75;5.75;;;;;;;;5037608;28;47043;-83
2021/08/03 20:44:39;;;;;;;;;6.25;5.00;;;;;;;;5037697;28;47043;-83
2021/08/03 20:47:05;;;;;;;;;5.25;5.00;;;;;;;;5037554;28;46960;-82
2021/08/03 20:49:30;;;;;;;;;6.00;5.00;;;;;;;;5037199;28;47031;-82
2021/08/03 20:51:56;;;;;;;;;5.25;4.25;;;;;;;;5036178;28;46869;-82
2021/08/03 20:54:22;;;;;;;;;7.00;5.00;;;;;;;;5039251;28;47064;-82
2021/08/03 20:56:49;;;;;;;;;5.25;5.25;;;;;;;;5040906;28;46861;-83
2021/08/03 20:59:15;;;;;;;;;6.00;5.00;;;;;;;;5022576;28;47006;-83
2021/08/03 21:01:41;;;;;;;;;5.00;3.25;;;;;;;;5041017;28;47156;-83
2021/08/03 21:04:07;;;;;;;;;5.25;4.00;;;;;;;;5040677;28;47042;-82
2021/08/03 21:06:33;;;;;;;;;7.00;7.00;;;;;;;;5040706;28;47895;-82
2021/08/03 21:09:06;;;;;;;;;8.00;6.75;;;;;;;;5040710;28;47226;-83
2021/08/03 21:11:32;;;;;;;;;6.75;6.00;;;;;;;;5040671;28;46908;-83
2021/08/03 21:14:03;;;;;;;;;6.25;5.00;;;;;;;;5040527;28;47140;-83
2021/08/03 21:16:29;;;;;;;;;7.50;5.50;;;;;;;;5039077;28;49285;-83
2021/08/03 21:18:54;;;;;;;;;7.75;6.50;;;;;;;;5040009;28;46942;-83
2021/08/03 21:21:19;;;;;;;;;6.00;6.00;;;;;;;;5032427;28;46797;-83
2021/08/03 21:23:45;;;;;;;;;5.50;5.25;;;;;;;;5035886;28;46833;-83
2021/08/03 21:26:11;;;;;;;;;5.75;5.50;;;;;;;;5040237;28;47797;-83
2021/08/03 21:28:36;;;;;;;;;6.50;5.25;;;;;;;;5040180;28;47014;-82
2021/08/03 21:31:01;;;;;;;;;6.33;5.33;;;;;;;;5040529;28;46739;-83
2021/08/03 21:33:26;;;;;;;;;0.00;0.00;;;;;;;;5036080;28;46824;-83
2021/08/03 21:35:52;;;;;;;;;5.25;4.75;;;;;;;;5040278;28;48126;-83
2021/08/03 21:38:17;;;;;;;;;5.00;5.00;;;;;;;;5040075;28;46885;-82
2021/08/03 21:40:42;;;;;;;;;5.75;5.75;;;;;;;;5040286;28;47166;-82
2021/08/03 21:43:08;;;;;;;;;5.00;5.00;;;;;;;;5040222;28;47075;-84
2021/08/03 21:45:33;;;;;;;;;5.50;5.50;;;;;;;;5040043;28;47020;-83
2021/08/03 21:48:08;;;;;;;;;8.00;6.50;;;;;;;;5038290;28;46992;-83
2021/08/03 21:50:33;;;;;;;;;5.00;5.00;;;;;;;;5022131;28;47093;-83